Ischia Jet — IOBI — position and weather

sailwx.info

Track history (hours):
 
Tides and Currents Weather Stations Pressure Air Temp Water Temp Dewpoint Dewpoint Depression Visibility Wind Speed Wind Dir Waves Ship Positions

Ischia Jet

Last reported at 2015-Jul-28 16:33 UTC. Time now 2015-Jul-28 17:49 UTC.
Position N 40°42' E 014°27'.

Length 42 m; draft 1.2 m.

Type: Passenger vessel. MMSI: 247048700.

Date/timePositionNaut miles runAvg speedWind from/ knotsBaromVisibWave heightAir tempDewpointWater temp
2015-Jul-28 16:33N 40°42' E 014°27'1312.5
2015-Jul-28 15:33N 40°33' E 014°14'2 1.5
2015-Jul-28 14:33N 40°34' E 014°16'2 1.6
2015-Jul-28 13:33N 40°33' E 014°14'8 7.6
2015-Jul-28 12:32N 40°38' E 014°23'8 7.8
2015-Jul-28 11:33N 40°33' E 014°14'7 6.7
2015-Jul-28 10:30N 40°40' E 014°16'9 7.9
2015-Jul-28 09:22N 40°49' E 014°17'1618.5
2015-Jul-28 08:29N 40°33' E 014°14'8 8.1
2015-Jul-28 07:32N 40°38' E 014°23'0 0.3
2015-Jul-28 06:33N 40°38' E 014°22'6 0.4
2015-Jul-27 16:11N 40°43' E 014°28'1112.4
2015-Jul-27 15:20N 40°49' E 014°17'1621.0
2015-Jul-27 14:33N 40°33' E 014°15'0 0.0
2015-Jul-27 13:33N 40°33' E 014°14'8 6.8
2015-Jul-27 12:27N 40°38' E 014°23'8 8.5
2015-Jul-27 11:33N 40°33' E 014°14'0 0.1
2015-Jul-27 10:33N 40°33' E 014°15'6 2.9
2015-Jul-27 08:33N 40°39' E 014°15'6 5.6
2015-Jul-27 07:33N 40°38' E 014°23'7 0.5
2015-Jul-26 16:26N 40°45' E 014°22'4 4.3
2015-Jul-26 15:33N 40°46' E 014°17'1312.5
2015-Jul-26 14:33N 40°33' E 014°14'0 0.5
2015-Jul-26 13:33N 40°34' E 014°15'16 8.0
2015-Jul-26 11:30N 40°50' E 014°16'1717.7
2015-Jul-26 10:33N 40°33' E 014°14'8 3.7
2015-Jul-26 08:20N 40°35' E 014°25'810.6
2015-Jul-26 07:33N 40°33' E 014°14'1413.6
2015-Jul-26 06:34N 40°42' E 014°28'3 0.2
2015-Jul-25 16:33N 40°40' E 014°25'1010.4
2015-Jul-25 15:33N 40°33' E 014°14'0 0.5
2015-Jul-25 14:33N 40°34' E 014°15'1 0.6
2015-Jul-25 13:31N 40°33' E 014°14'5 5.1
2015-Jul-25 12:32N 40°38' E 014°17'7 6.6
2015-Jul-25 11:33N 40°45' E 014°17'6 1.8
2015-Jul-25 08:33N 40°39' E 014°16'5 5.3
2015-Jul-25 07:33N 40°38' E 014°23'0 0.0
2015-Jul-25 06:32N 40°38' E 014°23'0 0.0
2015-Jul-24 16:29N 40°38' E 014°23'8 8.1
2015-Jul-24 15:33N 40°33' E 014°14'3 3.2
2015-Jul-24 14:31N 40°36' E 014°16'13 4.2
2015-Jul-24 11:24N 40°49' E 014°17'1619.3
2015-Jul-24 10:33N 40°33' E 014°14'7 6.4
2015-Jul-24 09:31N 40°34' E 014°23'7 7.5
2015-Jul-24 08:33N 40°36' E 014°32'1413.5
2015-Jul-24 07:32N 40°33' E 014°14'1413.9
2015-Jul-24 06:33N 40°42' E 014°28'0 0.3
2015-Jul-24 05:33N 40°42' E 014°29'0 0.0
2015-Jul-23 15:30N 40°42' E 014°29'6 6.2
2015-Jul-23 14:33N 40°38' E 014°23'8 7.6
2015-Jul-23 13:33N 40°33' E 014°14'0 0.0
2015-Jul-23 12:30N 40°33' E 014°14'0 0.0
2015-Jul-23 11:33N 40°33' E 014°14'7 6.8
2015-Jul-23 10:31N 40°40' E 014°16'10 8.7
2015-Jul-23 09:24N 40°50' E 014°16'1719.7
2015-Jul-23 08:33N 40°33' E 014°14'8 7.5
2015-Jul-23 07:32N 40°38' E 014°23'6 0.1
2015-Jul-21 15:16N 40°42' E 014°29'6 8.1
2015-Jul-21 14:34N 40°38' E 014°23'8 7.6
2015-Jul-21 13:33N 40°33' E 014°14'0 0.0
2015-Jul-21 12:33N 40°33' E 014°14'0 0.0
2015-Jul-21 11:33N 40°33' E 014°14'7 7.5
2015-Jul-21 10:34N 40°41' E 014°16'9 7.0
2015-Jul-21 09:17N 40°50' E 014°17'1622.5
2015-Jul-21 08:33N 40°33' E 014°14'8 7.3
2015-Jul-21 07:30N 40°38' E 014°23'0 0.0
2015-Jul-21 06:19N 40°38' E 014°23'4 0.3
2015-Jul-20 16:33N 40°41' E 014°26'1212.1
2015-Jul-20 15:33N 40°33' E 014°14'1 1.0
2015-Jul-20 14:33N 40°34' E 014°15'1 1.0
2015-Jul-20 13:33N 40°33' E 014°14'0 0.0
2015-Jul-20 12:31N 40°33' E 014°14'2 2.0
2015-Jul-20 11:33N 40°35' E 014°16'6 5.4
2015-Jul-20 10:30N 40°38' E 014°23'6 6.7
2015-Jul-20 09:33N 40°34' E 014°16'5 4.8
2015-Jul-20 08:32N 40°38' E 014°20'2 2.1
2015-Jul-20 07:33N 40°38' E 014°23'0 0.0
2015-Jul-20 06:31N 40°38' E 014°23'6 0.4
2015-Jul-19 16:33N 40°42' E 014°28'9 9.1
2015-Jul-19 15:31N 40°46' E 014°17'1313.6
2015-Jul-19 14:33N 40°33' E 014°14'0 0.4
2015-Jul-19 13:33N 40°34' E 014°15'16 7.6
2015-Jul-19 11:26N 40°50' E 014°17'1618.8
2015-Jul-19 10:33N 40°33' E 014°14'  
Track history (hours):
 
Tides and Currents Weather Stations Pressure Air Temp Water Temp Dewpoint Dewpoint Depression Visibility Wind Speed Wind Dir Waves Ship Positions

Ischia Jet

Last reported at 2015-Jul-28 16:33 UTC. Time now 2015-Jul-28 17:49 UTC.
Position N 40°42' E 014°27'.

Length 42 m; draft 1.2 m.

Type: Passenger vessel. MMSI: 247048700.

Date/timePositionNaut miles runAvg speedWind from/ knotsBaromVisibWave heightAir tempDewpointWater temp
2015-Jul-28 16:33N 40°42' E 014°27'1312.5
2015-Jul-28 15:33N 40°33' E 014°14'2 1.5
2015-Jul-28 14:33N 40°34' E 014°16'2 1.6
2015-Jul-28 13:33N 40°33' E 014°14'8 7.6
2015-Jul-28 12:32N 40°38' E 014°23'8 7.8
2015-Jul-28 11:33N 40°33' E 014°14'7 6.7
2015-Jul-28 10:30N 40°40' E 014°16'9 7.9
2015-Jul-28 09:22N 40°49' E 014°17'1618.5
2015-Jul-28 08:29N 40°33' E 014°14'8 8.1
2015-Jul-28 07:32N 40°38' E 014°23'0 0.3
2015-Jul-28 06:33N 40°38' E 014°22'6 0.4
2015-Jul-27 16:11N 40°43' E 014°28'1112.4
2015-Jul-27 15:20N 40°49' E 014°17'1621.0
2015-Jul-27 14:33N 40°33' E 014°15'0 0.0
2015-Jul-27 13:33N 40°33' E 014°14'8 6.8
2015-Jul-27 12:27N 40°38' E 014°23'8 8.5
2015-Jul-27 11:33N 40°33' E 014°14'0 0.1
2015-Jul-27 10:33N 40°33' E 014°15'6 2.9
2015-Jul-27 08:33N 40°39' E 014°15'6 5.6
2015-Jul-27 07:33N 40°38' E 014°23'7 0.5
2015-Jul-26 16:26N 40°45' E 014°22'4 4.3
2015-Jul-26 15:33N 40°46' E 014°17'1312.5
2015-Jul-26 14:33N 40°33' E 014°14'0 0.5
2015-Jul-26 13:33N 40°34' E 014°15'16 8.0
2015-Jul-26 11:30N 40°50' E 014°16'1717.7
2015-Jul-26 10:33N 40°33' E 014°14'8 3.7
2015-Jul-26 08:20N 40°35' E 014°25'810.6
2015-Jul-26 07:33N 40°33' E 014°14'1413.6
2015-Jul-26 06:34N 40°42' E 014°28'3 0.2
2015-Jul-25 16:33N 40°40' E 014°25'1010.4
2015-Jul-25 15:33N 40°33' E 014°14'0 0.5
2015-Jul-25 14:33N 40°34' E 014°15'1 0.6
2015-Jul-25 13:31N 40°33' E 014°14'5 5.1
2015-Jul-25 12:32N 40°38' E 014°17'7 6.6
2015-Jul-25 11:33N 40°45' E 014°17'6 1.8
2015-Jul-25 08:33N 40°39' E 014°16'5 5.3
2015-Jul-25 07:33N 40°38' E 014°23'0 0.0
2015-Jul-25 06:32N 40°38' E 014°23'0 0.0
2015-Jul-24 16:29N 40°38' E 014°23'8 8.1
2015-Jul-24 15:33N 40°33' E 014°14'3 3.2
2015-Jul-24 14:31N 40°36' E 014°16'13 4.2
2015-Jul-24 11:24N 40°49' E 014°17'1619.3
2015-Jul-24 10:33N 40°33' E 014°14'7 6.4
2015-Jul-24 09:31N 40°34' E 014°23'7 7.5
2015-Jul-24 08:33N 40°36' E 014°32'1413.5
2015-Jul-24 07:32N 40°33' E 014°14'1413.9
2015-Jul-24 06:33N 40°42' E 014°28'0 0.3
2015-Jul-24 05:33N 40°42' E 014°29'0 0.0
2015-Jul-23 15:30N 40°42' E 014°29'6 6.2
2015-Jul-23 14:33N 40°38' E 014°23'8 7.6
2015-Jul-23 13:33N 40°33' E 014°14'0 0.0
2015-Jul-23 12:30N 40°33' E 014°14'0 0.0
2015-Jul-23 11:33N 40°33' E 014°14'7 6.8
2015-Jul-23 10:31N 40°40' E 014°16'10 8.7
2015-Jul-23 09:24N 40°50' E 014°16'1719.7
2015-Jul-23 08:33N 40°33' E 014°14'8 7.5
2015-Jul-23 07:32N 40°38' E 014°23'6 0.1
2015-Jul-21 15:16N 40°42' E 014°29'6 8.1
2015-Jul-21 14:34N 40°38' E 014°23'8 7.6
2015-Jul-21 13:33N 40°33' E 014°14'0 0.0
2015-Jul-21 12:33N 40°33' E 014°14'0 0.0
2015-Jul-21 11:33N 40°33' E 014°14'7 7.5
2015-Jul-21 10:34N 40°41' E 014°16'9 7.0
2015-Jul-21 09:17N 40°50' E 014°17'1622.5
2015-Jul-21 08:33N 40°33' E 014°14'8 7.3
2015-Jul-21 07:30N 40°38' E 014°23'0 0.0
2015-Jul-21 06:19N 40°38' E 014°23'4 0.3
2015-Jul-20 16:33N 40°41' E 014°26'1212.1
2015-Jul-20 15:33N 40°33' E 014°14'1 1.0
2015-Jul-20 14:33N 40°34' E 014°15'1 1.0
2015-Jul-20 13:33N 40°33' E 014°14'0 0.0
2015-Jul-20 12:31N 40°33' E 014°14'2 2.0
2015-Jul-20 11:33N 40°35' E 014°16'6 5.4
2015-Jul-20 10:30N 40°38' E 014°23'6 6.7
2015-Jul-20 09:33N 40°34' E 014°16'5 4.8
2015-Jul-20 08:32N 40°38' E 014°20'2 2.1
2015-Jul-20 07:33N 40°38' E 014°23'0 0.0
2015-Jul-20 06:31N 40°38' E 014°23'6 0.4
2015-Jul-19 16:33N 40°42' E 014°28'9 9.1
2015-Jul-19 15:31N 40°46' E 014°17'1313.6
2015-Jul-19 14:33N 40°33' E 014°14'0 0.4
2015-Jul-19 13:33N 40°34' E 014°15'16 7.6
2015-Jul-19 11:26N 40°50' E 014°17'1618.8
2015-Jul-19 10:33N 40°33' E 014°14'  

Dump ship's entire track history